Time;durP1;ratioP1;P1;durP2;ratioP2;P2;SDS_P1;SDS_P2;PMS_P1;PMS_P2;Temp;Humidity;BMP_temperature;BMP_pressure;BME280_temperature;BME280_humidity;BME280_pressure;Samples;Min_cycle;Max_cycle;Signal;HPM_P1;HPM_P2
2022/10/25 00:01:53;;;;;;;1.87;1.20;;;16.60;76.30;;;-142.21;100.00;112049.66;5053578;28;20535;-69
2022/10/25 00:04:21;;;;;;;2.53;1.57;;;16.60;76.20;;;-142.21;100.00;112049.66;5052127;28;20444;-69
2022/10/25 00:06:48;;;;;;;1.90;1.10;;;16.60;76.30;;;-142.21;100.00;112049.66;5053137;28;20447;-68
2022/10/25 00:09:18;;;;;;;3.80;1.40;;;16.60;76.80;;;-142.21;100.00;112049.66;5053109;28;20479;-67
2022/10/25 00:11:47;;;;;;;2.00;0.90;;;16.50;76.80;;;-142.21;100.00;112049.66;5053601;28;20444;-68
2022/10/25 00:14:17;;;;;;;3.43;1.30;;;16.50;77.10;;;-142.21;100.00;112049.66;5052627;28;20475;-69
2022/10/25 00:16:44;;;;;;;1.43;1.10;;;16.50;77.20;;;-142.21;100.00;112049.66;5053621;28;20526;-69
2022/10/25 00:19:13;;;;;;;1.53;1.40;;;16.60;77.40;;;-142.21;100.00;112049.66;5052636;28;20452;-68
2022/10/25 00:21:41;;;;;;;3.90;0.83;;;16.60;77.40;;;-142.21;100.00;112049.66;5053543;28;20449;-68
2022/10/25 00:24:11;;;;;;;1.23;1.10;;;16.60;77.40;;;-142.21;100.00;112049.66;5053549;28;20547;-68
2022/10/25 00:26:40;;;;;;;1.13;0.90;;;16.60;77.40;;;-142.21;100.00;112049.66;5052808;28;20456;-69
2022/10/25 00:29:08;;;;;;;2.07;1.37;;;16.60;77.70;;;-142.21;100.00;112049.66;5051344;28;20455;-69
2022/10/25 00:31:36;;;;;;;1.57;1.30;;;16.60;78.00;;;-142.21;100.00;112049.66;5053483;28;20480;-69
2022/10/25 00:34:05;;;;;;;3.30;1.37;;;16.60;78.00;;;-142.21;100.00;112049.66;5052585;28;20452;-69
2022/10/25 00:36:32;;;;;;;1.40;1.30;;;16.60;78.30;;;-142.21;100.00;112049.66;5052240;28;20470;-70
2022/10/25 00:39:00;;;;;;;3.83;1.40;;;16.60;78.50;;;-142.21;100.00;112049.66;5046274;28;20498;-70
2022/10/25 00:41:31;;;;;;;1.00;0.90;;;16.60;78.20;;;-142.21;100.00;112049.66;5052473;28;20443;-69
2022/10/25 00:44:52;;;;;;;1.43;1.20;;;16.70;78.50;;;-142.21;100.00;112049.66;5051512;28;20445;-68
2022/10/25 00:47:44;;;;;;;1.43;0.87;;;16.70;78.60;;;-142.21;100.00;112049.66;5032554;28;20449;-68
2022/10/25 00:50:34;;;;;;;1.43;1.07;;;16.80;78.50;;;-142.21;100.00;112049.66;5051577;28;20474;-70
2022/10/25 00:53:10;;;;;;;1.93;1.13;;;16.80;78.20;;;-142.21;100.00;112049.66;5052322;28;20575;-69
2022/10/25 00:55:44;;;;;;;4.17;1.10;;;16.80;78.20;;;-142.21;100.00;112049.66;5052939;28;20436;-68
2022/10/25 00:58:17;;;;;;;4.53;1.23;;;16.90;78.30;;;-142.21;100.00;112049.66;5052221;28;20441;-69
2022/10/25 01:00:46;;;;;;;1.70;1.03;;;16.90;78.30;;;-142.21;100.00;112049.66;5048682;28;20437;-68
2022/10/25 01:03:15;;;;;;;2.57;1.20;;;16.90;78.30;;;-142.21;100.00;112049.66;5044742;28;20515;-67
2022/10/25 01:05:43;;;;;;;4.00;1.30;;;16.90;78.20;;;-142.21;100.00;112049.66;5052488;28;20457;-68
2022/10/25 01:08:12;;;;;;;3.60;1.40;;;16.80;78.20;;;-142.21;100.00;112049.66;5052641;28;20529;-68
2022/10/25 01:10:40;;;;;;;3.90;1.27;;;16.80;78.30;;;-142.21;100.00;112049.66;5050316;28;20996;-67
2022/10/25 01:13:07;;;;;;;4.03;1.17;;;16.90;78.50;;;-142.21;100.00;112049.66;5052685;28;20444;-68
2022/10/25 01:15:52;;;;;;;1.97;1.00;;;16.90;78.30;;;-142.21;100.00;112049.66;5052082;28;20441;-67
2022/10/25 01:18:27;;;;;;;3.50;1.10;;;16.90;78.30;;;-142.21;100.00;112049.66;5052429;28;20448;-67
2022/10/25 01:21:44;;;;;;;3.00;1.47;;;16.90;78.10;;;-142.21;100.00;112049.66;5052842;28;20462;-67
2022/10/25 01:25:02;;;;;;;2.00;1.20;;;16.90;78.10;;;-142.21;100.00;112049.66;5044459;28;20482;-70
2022/10/25 01:28:12;;;;;;;4.13;1.20;;;16.90;78.10;;;-142.21;100.00;112049.66;5046940;28;20444;-69
2022/10/25 01:31:12;;;;;;;2.27;1.00;;;16.90;78.50;;;-142.21;100.00;112049.66;5041627;28;20519;-68
2022/10/25 01:33:48;;;;;;;1.43;0.90;;;16.90;78.50;;;-142.21;100.00;112049.66;5043800;28;20772;-69
2022/10/25 01:36:27;;;;;;;1.20;1.10;;;16.80;78.30;;;-142.21;100.00;112049.66;5052176;28;20546;-68
2022/10/25 01:39:07;;;;;;;1.63;1.40;;;16.80;78.50;;;-142.21;100.00;112049.66;5052274;28;20912;-69
2022/10/25 01:41:48;;;;;;;2.33;1.40;;;16.80;78.60;;;-142.21;100.00;112049.66;5051348;28;20524;-67
2022/10/25 01:44:32;;;;;;;1.20;1.10;;;16.80;78.60;;;-142.21;100.00;112049.66;5051670;28;20440;-68
2022/10/25 01:47:03;;;;;;;2.63;1.30;;;16.90;78.80;;;-142.21;100.00;112049.66;5052211;28;20539;-69
2022/10/25 01:49:41;;;;;;;1.40;1.30;;;16.80;78.90;;;-142.21;100.00;112049.66;5051739;28;20439;-68
2022/10/25 01:52:09;;;;;;;2.73;1.20;;;16.70;79.20;;;-142.21;100.00;112049.66;5051795;28;20563;-68
2022/10/25 01:54:36;;;;;;;2.23;1.20;;;16.80;79.30;;;-142.21;100.00;112049.66;5050923;28;20464;-68
2022/10/25 01:57:26;;;;;;;3.30;1.67;;;16.80;79.10;;;-142.21;100.00;112049.66;5052382;28;20439;-68
2022/10/25 02:00:16;;;;;;;2.00;1.33;;;16.80;79.40;;;-142.21;100.00;112049.66;5038591;28;20495;-69
2022/10/25 02:03:10;;;;;;;1.13;0.93;;;16.70;79.20;;;-142.21;100.00;112049.66;5044824;28;20519;-68
2022/10/25 02:05:54;;;;;;;6.03;1.77;;;16.80;79.10;;;-142.21;100.00;112049.66;5050982;28;20459;-68
2022/10/25 02:08:34;;;;;;;2.00;1.50;;;16.80;79.10;;;-142.21;100.00;112049.66;5053614;28;20431;-68
2022/10/25 02:11:09;;;;;;;2.30;1.00;;;16.80;79.10;;;-142.21;100.00;112049.66;5036346;28;20469;-69
2022/10/25 02:13:57;;;;;;;2.50;1.20;;;16.80;79.00;;;-142.21;100.00;112049.66;5054484;28;20439;-68
2022/10/25 02:16:28;;;;;;;3.43;1.30;;;16.80;79.20;;;-142.21;100.00;112049.66;5055368;28;20440;-68
2022/10/25 02:19:02;;;;;;;1.70;1.33;;;16.80;79.20;;;-142.21;100.00;112049.66;5055445;28;20438;-69
2022/10/25 02:21:33;;;;;;;5.43;1.40;;;16.70;79.60;;;-142.21;100.00;112049.66;5047971;28;20442;-68
2022/10/25 02:24:09;;;;;;;3.07;1.33;;;16.70;79.60;;;-142.21;100.00;112049.66;5055049;28;20437;-68
2022/10/25 02:26:38;;;;;;;4.20;1.40;;;16.60;79.50;;;-142.21;100.00;112049.66;5040347;28;20487;-68
2022/10/25 02:29:08;;;;;;;1.30;1.20;;;16.60;79.50;;;-142.21;100.00;112049.66;5055186;28;20448;-68
2022/10/25 02:31:37;;;;;;;1.97;1.30;;;16.60;79.90;;;-142.21;100.00;112049.66;5054901;28;20476;-68
2022/10/25 02:34:06;;;;;;;4.10;1.67;;;16.50;79.90;;;-142.21;100.00;112049.66;5055455;28;20459;-68
2022/10/25 02:36:33;;;;;;;3.80;1.33;;;16.50;79.80;;;-142.21;100.00;112049.66;5055292;28;20444;-68
2022/10/25 02:39:01;;;;;;;2.53;1.20;;;16.50;80.00;;;-142.21;100.00;112049.66;5055046;28;20475;-68
2022/10/25 02:45:10;;;;;;;2.87;1.40;;;16.50;80.20;;;-142.21;100.00;112049.66;5051615;28;20814;-68
2022/10/25 02:47:40;;;;;;;1.33;1.10;;;16.50;79.70;;;-142.21;100.00;112049.66;5054558;28;20538;-68
2022/10/25 02:50:09;;;;;;;1.63;1.23;;;16.50;79.40;;;-142.21;100.00;112049.66;5055728;28;20494;-69
2022/10/25 02:52:37;;;;;;;2.20;1.37;;;16.50;79.40;;;-142.21;100.00;112049.66;5053875;28;20463;-68
2022/10/25 02:55:05;;;;;;;3.43;1.23;;;16.50;79.40;;;-142.21;100.00;112049.66;5055157;28;20479;-69
2022/10/25 02:57:33;;;;;;;3.43;1.37;;;16.50;79.70;;;-142.21;100.00;112049.66;5054732;28;20467;-68
2022/10/25 03:00:00;;;;;;;2.07;1.10;;;16.50;79.50;;;-142.21;100.00;112049.66;5055184;28;20521;-68
2022/10/25 03:02:28;;;;;;;3.83;1.60;;;16.50;79.40;;;-142.21;100.00;112049.66;5036515;28;20441;-68
2022/10/25 03:04:58;;;;;;;2.47;1.63;;;16.50;79.80;;;-142.21;100.00;112049.66;5033848;28;20456;-68
2022/10/25 03:07:32;;;;;;;2.97;1.50;;;16.50;80.10;;;-142.21;100.00;112049.66;5034400;28;20769;-67
2022/10/25 03:09:59;;;;;;;4.17;1.70;;;16.60;80.50;;;-142.21;100.00;112049.66;5043119;28;20437;-69
2022/10/25 03:12:26;;;;;;;2.60;1.97;;;16.60;80.70;;;-142.21;100.00;112049.66;5052004;28;20491;-69
2022/10/25 03:14:53;;;;;;;2.37;2.03;;;16.60;81.50;;;-142.21;100.00;112049.66;5055114;28;20453;-69
2022/10/25 03:17:20;;;;;;;4.30;1.83;;;16.60;80.80;;;-142.21;100.00;112049.66;5054638;28;20535;-69
2022/10/25 03:19:49;;;;;;;2.73;2.17;;;16.60;80.80;;;-142.21;100.00;112049.66;5053987;28;20527;-69
2022/10/25 03:22:16;;;;;;;5.40;2.43;;;16.70;81.00;;;-142.21;100.00;112049.66;5054442;28;20444;-68
2022/10/25 03:24:44;;;;;;;3.97;2.10;;;16.70;81.40;;;-142.21;100.00;112049.66;5054399;28;20490;-68
2022/10/25 03:27:12;;;;;;;2.97;1.83;;;16.70;81.60;;;-142.21;100.00;112049.66;5054594;28;20451;-68
2022/10/25 03:29:39;;;;;;;6.67;1.80;;;16.70;81.90;;;-142.21;100.00;112049.66;5053936;28;20486;-68
2022/10/25 03:32:06;;;;;;;3.43;2.23;;;16.80;82.20;;;-142.21;100.00;112049.66;5054196;28;20484;-68
2022/10/25 03:34:33;;;;;;;8.27;2.30;;;16.80;82.20;;;-142.21;100.00;112049.66;5053435;28;20995;-68
2022/10/25 03:37:00;;;;;;;3.97;2.40;;;16.90;83.10;;;-142.21;100.00;112049.66;5054281;28;20440;-69
2022/10/25 03:39:28;;;;;;;5.30;1.80;;;16.90;82.30;;;-142.21;100.00;112049.66;5050128;28;20440;-68
2022/10/25 03:41:56;;;;;;;5.00;2.07;;;16.90;82.30;;;-142.21;100.00;112049.66;5054327;28;20444;-68
2022/10/25 03:44:23;;;;;;;4.50;2.10;;;17.00;82.20;;;-142.21;100.00;112049.66;5053849;28;20487;-69
2022/10/25 03:46:50;;;;;;;5.23;2.00;;;17.10;82.20;;;-142.21;100.00;112049.66;5054573;28;20840;-69
2022/10/25 03:49:17;;;;;;;5.30;1.80;;;17.20;81.90;;;-142.21;100.00;112049.66;5054080;28;20455;-68
2022/10/25 03:51:45;;;;;;;5.17;2.00;;;17.20;81.60;;;-142.21;100.00;112049.66;5053303;28;20476;-68
2022/10/25 03:54:12;;;;;;;4.10;2.10;;;17.30;81.60;;;-142.21;100.00;112049.66;5054023;28;20472;-68
2022/10/25 03:56:39;;;;;;;3.67;2.27;;;17.30;81.40;;;-142.21;100.00;112049.66;5053593;28;20450;-68
2022/10/25 03:59:07;;;;;;;5.77;2.20;;;17.30;81.30;;;-142.21;100.00;112049.66;5054256;28;20444;-68
2022/10/25 04:01:35;;;;;;;3.70;2.07;;;17.30;81.20;;;-142.21;100.00;112049.66;5050963;28;20551;-69
2022/10/25 04:04:02;;;;;;;5.10;2.10;;;17.30;81.20;;;-142.21;100.00;112049.66;5034256;28;20444;-69
2022/10/25 04:06:29;;;;;;;4.73;2.10;;;17.30;81.20;;;-142.21;100.00;112049.66;5053363;28;20455;-69
2022/10/25 04:08:57;;;;;;;3.87;2.20;;;17.20;81.20;;;-142.21;100.00;112049.66;5053237;28;20534;-68
2022/10/25 04:11:24;;;;;;;3.63;2.13;;;17.20;81.40;;;-142.21;100.00;112049.66;5053000;28;20498;-68
2022/10/25 04:13:52;;;;;;;5.83;2.00;;;17.20;81.30;;;-142.21;100.00;112049.66;5053647;28;20954;-68
2022/10/25 04:16:22;;;;;;;3.20;2.07;;;17.10;81.30;;;-142.21;100.00;112049.66;5053634;28;20539;-68
2022/10/25 04:18:52;;;;;;;6.80;2.20;;;17.10;81.50;;;-142.21;100.00;112049.66;5053765;28;20462;-69
2022/10/25 04:21:19;;;;;;;5.23;2.20;;;17.10;81.70;;;-142.21;100.00;112049.66;5053267;28;20440;-68
2022/10/25 04:23:47;;;;;;;4.03;2.30;;;17.10;81.60;;;-142.21;100.00;112049.66;5053721;28;20528;-69
2022/10/25 04:26:16;;;;;;;3.50;1.83;;;17.10;81.30;;;-142.21;100.00;112049.66;5052975;28;20464;-68
2022/10/25 04:28:44;;;;;;;6.87;2.40;;;17.10;81.00;;;-142.21;100.00;112049.66;5052409;28;20444;-68
2022/10/25 04:31:11;;;;;;;3.20;2.20;;;17.10;81.00;;;-142.21;100.00;112049.66;5052885;28;20480;-68
2022/10/25 04:33:39;;;;;;;6.73;2.50;;;17.00;80.60;;;-142.21;100.00;112049.66;5052476;28;20449;-68
2022/10/25 04:36:07;;;;;;;3.60;2.00;;;17.00;80.40;;;-142.21;100.00;112049.66;5052882;28;20459;-67
2022/10/25 04:38:34;;;;;;;2.30;1.90;;;16.90;80.20;;;-142.21;100.00;112049.66;5052646;28;20451;-69
2022/10/25 04:41:01;;;;;;;3.77;1.87;;;16.90;80.30;;;-142.21;100.00;112049.66;5053125;28;20447;-69
2022/10/25 04:43:29;;;;;;;3.27;1.87;;;16.90;80.20;;;-142.21;100.00;112049.66;5052829;28;20450;-69
2022/10/25 04:46:00;;;;;;;4.60;2.20;;;16.90;80.20;;;-142.21;100.00;112049.66;5052904;28;20949;-68
2022/10/25 04:48:27;;;;;;;6.87;2.33;;;16.80;80.20;;;-142.21;100.00;112049.66;5052267;28;20799;-67
2022/10/25 04:50:58;;;;;;;4.23;1.90;;;16.80;80.30;;;-142.21;100.00;112049.66;5052638;28;20450;-68
2022/10/25 04:53:26;;;;;;;3.57;2.00;;;16.80;80.50;;;-142.21;100.00;112049.66;5052246;28;20468;-68
2022/10/25 04:55:57;;;;;;;5.27;2.43;;;16.80;80.60;;;-142.21;100.00;112049.66;5052779;28;20448;-67
2022/10/25 04:58:25;;;;;;;6.27;2.27;;;16.80;80.80;;;-142.21;100.00;112049.66;5039333;28;20448;-68
2022/10/25 05:00:53;;;;;;;3.33;2.00;;;16.80;81.00;;;-142.21;100.00;112049.66;5047459;28;20445;-67
2022/10/25 05:03:20;;;;;;;3.30;1.73;;;16.80;80.90;;;-142.21;100.00;112049.66;5045871;28;20447;-67
2022/10/25 05:05:48;;;;;;;4.23;2.20;;;16.80;80.90;;;-142.21;100.00;112049.66;5052212;28;20463;-67
2022/10/25 05:08:16;;;;;;;4.23;2.10;;;16.70;80.80;;;-142.21;100.00;112049.66;5052713;28;20502;-68
2022/10/25 05:10:43;;;;;;;4.63;2.03;;;16.70;80.80;;;-142.21;100.00;112049.66;5040615;28;20536;-68
2022/10/25 05:13:10;;;;;;;4.37;2.00;;;16.70;80.80;;;-142.21;100.00;112049.66;5033579;28;20491;-67
2022/10/25 05:15:37;;;;;;;4.53;2.20;;;16.60;80.60;;;-142.21;100.00;112049.66;5052091;28;20780;-69
2022/10/25 05:18:05;;;;;;;4.63;2.00;;;16.60;80.70;;;-142.21;100.00;112049.66;5051855;28;20447;-68
2022/10/25 05:20:32;;;;;;;2.40;2.20;;;16.60;80.70;;;-142.21;100.00;112049.66;5051711;28;20476;-68
2022/10/25 05:22:59;;;;;;;3.23;2.10;;;16.60;81.50;;;-142.21;100.00;112049.66;5052656;28;20450;-68
2022/10/25 05:25:28;;;;;;;4.83;2.00;;;16.50;80.60;;;-142.21;100.00;112049.66;5051186;28;20559;-67
2022/10/25 05:27:55;;;;;;;4.77;2.23;;;16.60;80.80;;;-142.21;100.00;112049.66;5052251;28;20440;-67
2022/10/25 05:30:22;;;;;;;2.43;2.20;;;16.60;80.90;;;-142.21;100.00;112049.66;5051964;28;21234;-69
2022/10/25 05:32:49;;;;;;;3.37;2.37;;;16.60;81.20;;;-142.21;100.00;112049.66;5051902;28;20480;-67
2022/10/25 05:35:17;;;;;;;3.33;2.23;;;16.60;81.20;;;-142.21;100.00;112049.66;5052228;28;20453;-69
2022/10/25 05:37:44;;;;;;;3.43;2.30;;;16.50;81.60;;;-142.21;100.00;112049.66;5051003;28;20480;-68
2022/10/25 05:40:12;;;;;;;3.27;2.10;;;16.60;81.70;;;-142.21;100.00;112049.66;5052105;28;20448;-69
2022/10/25 05:42:41;;;;;;;4.63;2.40;;;16.60;81.80;;;-142.21;100.00;112049.66;5051568;28;20446;-68
2022/10/25 05:45:09;;;;;;;2.87;2.30;;;16.60;81.80;;;-142.21;100.00;112049.66;5060810;28;20539;-67
2022/10/25 05:47:36;;;;;;;5.47;2.33;;;16.70;81.80;;;-142.21;100.00;112049.66;5061499;28;20448;-68
2022/10/25 05:50:03;;;;;;;4.10;2.43;;;16.70;81.70;;;-142.21;100.00;112049.66;5052911;28;20444;-69
2022/10/25 05:52:33;;;;;;;3.57;2.30;;;16.80;81.70;;;-142.21;100.00;112049.66;5051810;28;20480;-73
2022/10/25 05:55:00;;;;;;;6.57;2.20;;;16.70;81.70;;;-142.21;100.00;112049.66;5051336;28;21194;-68
2022/10/25 05:57:27;;;;;;;3.43;2.13;;;16.80;81.80;;;-142.21;100.00;112049.66;5051376;28;20527;-68
2022/10/25 05:59:55;;;;;;;4.60;2.80;;;16.70;82.00;;;-142.21;100.00;112049.66;5047330;28;20864;-69
2022/10/25 06:02:22;;;;;;;5.80;2.40;;;16.80;82.10;;;-142.21;100.00;112049.66;5047785;28;20523;-68
2022/10/25 06:04:50;;;;;;;4.13;2.30;;;16.80;82.10;;;-142.21;100.00;112049.66;5051117;28;20458;-68
2022/10/25 06:07:17;;;;;;;3.93;2.30;;;16.80;82.30;;;-142.21;100.00;112049.66;5051413;28;20455;-68
2022/10/25 06:09:44;;;;;;;6.00;2.30;;;16.80;82.30;;;-142.21;100.00;112049.66;5050941;28;20444;-74
2022/10/25 06:12:11;;;;;;;7.00;2.23;;;16.80;82.30;;;-142.21;100.00;112049.66;5052302;28;20483;-69
2022/10/25 06:14:38;;;;;;;5.30;2.00;;;16.80;82.40;;;-142.21;100.00;112049.66;5051091;28;20444;-69
2022/10/25 06:17:07;;;;;;;4.07;1.90;;;16.80;82.40;;;-142.21;100.00;112049.66;5051537;28;21028;-69
2022/10/25 06:19:34;;;;;;;4.23;1.90;;;16.80;82.50;;;-142.21;100.00;112049.66;5044682;28;20443;-70
2022/10/25 06:22:01;;;;;;;2.80;2.17;;;16.90;82.60;;;-142.21;100.00;112049.66;5043489;28;20494;-70
2022/10/25 06:24:28;;;;;;;3.07;2.17;;;16.90;82.60;;;-142.21;100.00;112049.66;5038921;28;20492;-71
2022/10/25 06:26:55;;;;;;;3.83;2.30;;;16.90;82.50;;;-142.21;100.00;112049.66;4980838;28;20445;-70
2022/10/25 06:29:22;;;;;;;3.40;2.10;;;17.00;82.40;;;-142.21;100.00;112049.66;5043150;28;20445;-72
2022/10/25 06:31:49;;;;;;;4.87;1.97;;;17.00;82.20;;;-142.21;100.00;112049.66;5042015;28;20568;-71
2022/10/25 06:34:18;;;;;;;5.73;2.10;;;17.00;82.00;;;-142.21;100.00;112049.66;5045917;28;20528;-72
2022/10/25 06:36:45;;;;;;;4.87;2.10;;;17.00;82.00;;;-142.21;100.00;112049.66;5051024;28;20878;-72
2022/10/25 06:39:13;;;;;;;5.10;1.73;;;17.00;81.90;;;-142.21;100.00;112049.66;5051546;28;20836;-72
2022/10/25 06:41:40;;;;;;;3.00;1.70;;;17.00;82.00;;;-142.21;100.00;112049.66;5045478;28;20448;-72
2022/10/25 06:44:07;;;;;;;5.03;2.43;;;17.00;81.90;;;-142.21;100.00;112049.66;5050644;28;21210;-72
2022/10/25 06:46:38;;;;;;;4.43;2.17;;;17.00;81.70;;;-142.21;100.00;112049.66;5050755;28;20924;-72
2022/10/25 06:49:05;;;;;;;3.97;1.93;;;17.10;82.60;;;-142.21;100.00;112049.66;5049331;28;20465;-74
2022/10/25 06:51:34;;;;;;;5.47;1.97;;;17.00;81.60;;;-142.21;100.00;112049.66;5050936;28;20440;-73
2022/10/25 06:54:06;;;;;;;3.30;1.80;;;17.00;81.60;;;-142.21;100.00;112049.66;5052548;28;20604;-72
2022/10/25 06:56:34;;;;;;;4.77;1.93;;;17.00;81.60;;;-142.21;100.00;112049.66;5035058;28;20197;-71
2022/10/25 06:59:02;;;;;;;3.03;2.17;;;17.10;82.50;;;-142.21;100.00;112049.66;5035006;28;20217;-71
2022/10/25 07:01:29;;;;;;;2.97;2.17;;;17.10;81.70;;;-142.21;100.00;112049.66;5045103;28;20771;-72
2022/10/25 07:03:58;;;;;;;3.27;2.23;;;17.10;81.60;;;-142.21;100.00;112049.66;5054533;28;20444;-71
2022/10/25 07:06:28;;;;;;;4.27;2.00;;;17.20;81.60;;;-142.21;100.00;112049.66;5055061;28;20464;-71
2022/10/25 07:08:59;;;;;;;4.33;1.93;;;17.20;81.30;;;-142.21;100.00;112049.66;5053388;28;20455;-71
2022/10/25 07:11:29;;;;;;;2.37;1.90;;;17.20;81.70;;;-142.21;100.00;112049.66;5054546;28;20449;-72
2022/10/25 07:13:57;;;;;;;5.30;2.50;;;17.20;81.50;;;-142.21;100.00;112049.66;5054344;28;20440;-72
2022/10/25 07:16:26;;;;;;;4.67;2.07;;;17.30;81.30;;;-142.21;100.00;112049.66;5054686;28;20769;-71
2022/10/25 07:18:58;;;;;;;5.17;2.07;;;17.40;81.10;;;-142.21;100.00;112049.66;5053659;28;20471;-72
2022/10/25 07:21:25;;;;;;;4.93;2.13;;;17.50;81.20;;;-142.21;100.00;112049.66;5054544;28;20467;-72
2022/10/25 07:23:52;;;;;;;5.10;2.00;;;17.60;80.60;;;-142.21;100.00;112049.66;5053805;28;20441;-72
2022/10/25 07:26:24;;;;;;;4.27;1.97;;;17.60;80.60;;;-142.21;100.00;112049.66;5054093;28;20475;-72
2022/10/25 07:28:54;;;;;;;3.43;1.97;;;17.70;80.10;;;-142.21;100.00;112049.66;5053891;28;20440;-71
2022/10/25 07:31:23;;;;;;;3.50;2.00;;;17.80;80.10;;;-142.21;100.00;112049.66;5054309;28;20436;-72
2022/10/25 07:33:53;;;;;;;6.10;2.07;;;17.80;79.60;;;-142.21;100.00;112049.66;5053676;28;20475;-72
2022/10/25 07:36:21;;;;;;;3.63;2.00;;;18.00;79.30;;;-142.21;100.00;112049.66;5054920;28;20451;-71
2022/10/25 07:38:48;;;;;;;6.70;2.40;;;18.00;78.90;;;-142.21;100.00;112049.66;5053765;28;20206;-72
2022/10/25 07:41:16;;;;;;;5.27;2.10;;;18.10;78.80;;;-142.21;100.00;112049.66;5053923;28;20444;-72
2022/10/25 07:43:45;;;;;;;3.10;2.00;;;18.10;78.50;;;-142.21;100.00;112049.66;5053586;28;20523;-72
2022/10/25 07:46:12;;;;;;;3.80;1.80;;;18.20;78.00;;;-142.21;100.00;112049.66;5054348;28;20211;-73
2022/10/25 07:48:39;;;;;;;4.47;2.00;;;18.20;78.00;;;-142.21;100.00;112049.66;5053462;28;20197;-72
2022/10/25 07:51:10;;;;;;;3.90;2.10;;;18.30;77.70;;;-142.21;100.00;112049.66;5054237;28;20303;-72
2022/10/25 07:53:37;;;;;;;8.80;2.27;;;18.40;77.60;;;-142.21;100.00;112049.66;5053440;28;20225;-72
2022/10/25 07:56:06;;;;;;;3.33;1.73;;;18.60;77.80;;;-142.21;100.00;112049.66;5054051;28;20300;-72
2022/10/25 07:58:34;;;;;;;4.33;1.93;;;18.70;76.90;;;-142.21;100.00;112049.66;5053200;28;20479;-73
2022/10/25 08:01:05;;;;;;;3.60;1.90;;;18.80;76.10;;;-142.21;100.00;112049.66;5047452;28;20589;-72
2022/10/25 08:03:33;;;;;;;3.03;2.10;;;18.80;76.00;;;-142.21;99.83;112049.66;5048129;28;20524;-73
2022/10/25 08:06:01;;;;;;;5.27;1.90;;;18.90;76.00;;;-142.21;98.71;112049.66;5052580;28;20450;-72
2022/10/25 08:08:30;;;;;;;3.10;1.60;;;18.90;75.20;;;-142.21;98.87;112049.66;5053985;28;20210;-73
2022/10/25 08:10:58;;;;;;;4.03;1.63;;;19.00;75.40;;;-142.21;98.54;112049.66;5053231;28;20201;-71
2022/10/25 08:13:25;;;;;;;5.33;2.00;;;19.10;75.10;;;-142.21;98.26;112049.66;5053750;28;20241;-72
2022/10/25 08:15:55;;;;;;;6.70;2.10;;;19.20;74.80;;;-142.21;97.81;112049.66;5053067;28;20252;-72
2022/10/25 08:18:24;;;;;;;2.80;1.87;;;19.20;74.60;;;-142.21;97.41;112049.66;5053762;28;20205;-72
2022/10/25 08:20:52;;;;;;;2.80;1.53;;;19.20;74.30;;;-142.21;97.08;112049.66;5052928;28;20226;-72
2022/10/25 08:23:19;;;;;;;3.03;1.80;;;19.10;74.10;;;-142.21;97.47;112049.66;5053529;28;20289;-72
2022/10/25 08:25:47;;;;;;;2.87;1.80;;;19.20;74.60;;;-142.21;97.53;112049.66;5051735;28;20238;-71
2022/10/25 08:28:14;;;;;;;3.67;1.97;;;19.20;74.60;;;-142.21;97.10;112049.66;5053396;28;20206;-72
2022/10/25 08:30:42;;;;;;;5.93;2.30;;;19.20;74.50;;;-142.21;98.11;112049.66;5052682;28;20296;-72
2022/10/25 08:33:10;;;;;;;4.40;2.10;;;19.20;74.80;;;-142.21;98.02;112049.66;5053155;28;20486;-73
2022/10/25 08:35:39;;;;;;;4.57;1.90;;;19.20;74.60;;;-142.21;98.33;112049.66;5052702;28;20202;-72
2022/10/25 08:38:06;;;;;;;3.47;1.80;;;19.30;74.60;;;-142.21;98.43;112049.66;5053501;28;20297;-73
2022/10/25 08:40:48;;;;;;;3.47;1.73;;;19.40;74.60;;;-142.21;97.48;112049.66;5052370;28;20611;-73
2022/10/25 08:43:39;;;;;;;4.60;1.97;;;19.40;73.90;;;-142.21;97.59;112049.66;5053306;28;20593;-71
2022/10/25 08:46:16;;;;;;;4.57;1.80;;;19.30;73.90;;;-142.21;96.98;112049.66;5053330;28;20208;-72
2022/10/25 08:48:48;;;;;;;4.50;1.73;;;19.30;73.80;;;-142.21;97.89;112049.66;5034370;28;20201;-75
2022/10/25 08:51:26;;;;;;;3.27;1.83;;;19.30;74.40;;;-142.21;98.71;112049.66;5053472;28;20190;-73
2022/10/25 08:54:00;;;;;;;3.33;1.73;;;19.40;74.90;;;-142.21;98.20;112049.66;5051783;28;20229;-74
2022/10/25 08:56:28;;;;;;;2.70;1.70;;;19.50;74.60;;;-142.21;98.01;112049.66;5033504;28;20669;-74
2022/10/25 08:58:59;;;;;;;3.57;1.80;;;19.70;74.20;;;-142.21;96.03;112049.66;5052342;28;20632;-74
2022/10/25 09:01:34;;;;;;;8.37;2.07;;;19.70;73.00;;;-142.21;96.17;112049.66;5042949;28;20277;-73
2022/10/25 09:04:02;;;;;;;4.37;1.40;;;19.70;73.40;;;-142.21;96.14;112049.66;5048580;28;20272;-73
2022/10/25 09:06:39;;;;;;;3.27;1.50;;;19.80;73.20;;;-142.21;96.03;112049.66;5052997;28;20197;-73
2022/10/25 09:09:28;;;;;;;3.63;1.80;;;19.80;73.10;;;-142.21;96.95;112049.66;5052419;28;20200;-74
2022/10/25 09:12:12;;;;;;;3.93;2.00;;;19.90;73.30;;;-142.21;96.80;112049.66;5037931;28;20553;-72
2022/10/25 09:14:48;;;;;;;4.00;2.00;;;20.00;72.90;;;-142.21;96.20;112049.66;5052425;28;20281;-73
2022/10/25 09:17:20;;;;;;;4.47;1.50;;;20.00;72.80;;;-142.21;96.23;112049.66;5052399;28;20186;-73
2022/10/25 09:20:05;;;;;;;2.23;1.53;;;19.90;72.70;;;-142.21;94.90;112049.66;5051755;28;20200;-72
2022/10/25 09:22:46;;;;;;;5.40;1.67;;;19.90;71.90;;;-142.21;96.04;112049.66;5051259;28;20212;-73
2022/10/25 09:25:23;;;;;;;3.93;1.60;;;19.80;72.90;;;-142.21;95.69;112049.66;5052036;28;20244;-72
2022/10/25 09:27:59;;;;;;;3.60;1.50;;;19.70;73.00;;;-142.21;96.03;112049.66;5051968;28;20579;-73
2022/10/25 09:30:29;;;;;;;5.53;1.73;;;19.80;72.90;;;-142.21;94.82;112049.66;5051859;28;20220;-72
2022/10/25 09:33:00;;;;;;;3.80;1.60;;;19.70;73.00;;;-142.21;94.22;112049.66;5033021;28;20313;-72
2022/10/25 09:35:40;;;;;;;6.17;2.30;;;19.60;72.40;;;-142.21;94.05;112049.66;5052033;28;20232;-74
2022/10/25 09:38:17;;;;;;;3.30;1.53;;;19.60;72.70;;;-142.21;94.73;112049.66;5051932;28;20189;-73
2022/10/25 09:40:50;;;;;;;2.73;1.60;;;19.50;73.00;;;-142.21;95.82;112049.66;5051615;28;20243;-73
2022/10/25 09:43:26;;;;;;;5.93;1.50;;;19.60;73.40;;;-142.21;94.42;112049.66;5052421;28;20261;-72
2022/10/25 09:45:59;;;;;;;3.63;1.83;;;19.70;72.70;;;-142.21;95.30;112049.66;5051328;28;20197;-74
2022/10/25 09:48:38;;;;;;;7.40;1.90;;;19.70;73.00;;;-142.21;95.10;112049.66;5052373;28;20194;-74
2022/10/25 09:51:18;;;;;;;4.93;1.97;;;19.80;72.90;;;-142.21;94.50;112049.66;5036272;28;20585;-74
2022/10/25 09:53:47;;;;;;;5.27;2.10;;;19.90;72.50;;;-142.21;95.01;112049.66;5050926;28;20230;-74
2022/10/25 09:56:16;;;;;;;5.07;2.07;;;19.90;72.70;;;-142.21;94.49;112049.66;5052475;28;20217;-73
2022/10/25 09:58:45;;;;;;;4.53;1.90;;;19.90;72.60;;;-142.21;94.85;112049.66;5051119;28;20209;-73
2022/10/25 10:01:17;;;;;;;5.93;2.13;;;19.90;72.60;;;-142.21;94.75;112049.66;5052385;28;20666;-73
2022/10/25 10:03:45;;;;;;;4.80;2.03;;;20.00;72.30;;;-142.21;95.09;112049.66;5052057;28;20565;-73
2022/10/25 10:06:20;;;;;;;3.40;1.60;;;20.00;72.30;;;-142.21;95.19;112049.66;5057038;28;20201;-73
2022/10/25 10:08:54;;;;;;;5.83;2.10;;;20.00;72.30;;;-142.21;94.06;112049.66;5062498;28;20549;-72
2022/10/25 10:11:21;;;;;;;3.07;1.50;;;20.10;71.90;;;-142.21;93.90;112049.66;5056890;28;20189;-73
2022/10/25 10:13:55;;;;;;;2.40;1.43;;;20.20;71.70;;;-142.21;94.82;112049.66;5051939;28;20230;-75
2022/10/25 10:16:30;;;;;;;20.50;2.10;;;20.20;72.00;;;-142.21;93.72;112049.66;5052425;28;20196;-73